createdAt,value
2022-10-15T00:00:12.288Z,1.60
2022-10-15T00:02:57.615Z,0.77
2022-10-15T00:05:43.559Z,1.15
2022-10-15T00:08:28.919Z,1.10
2022-10-15T00:11:20.311Z,1.15
2022-10-15T00:14:06.485Z,1.58
2022-10-15T00:16:51.911Z,1.48
2022-10-15T00:19:37.727Z,2.00
2022-10-15T00:22:23.550Z,1.35
2022-10-15T00:25:10.120Z,1.60
2022-10-15T00:27:55.525Z,0.93
2022-10-15T00:30:41.112Z,1.00
2022-10-15T00:33:26.910Z,1.10
2022-10-15T00:36:16.517Z,1.17
2022-10-15T00:39:04.481Z,1.58
2022-10-15T00:41:50.295Z,0.63
2022-10-15T00:44:54.928Z,0.88
2022-10-15T00:47:48.565Z,0.93
2022-10-15T00:50:36.987Z,0.77
2022-10-15T00:53:23.137Z,0.98
2022-10-15T00:56:08.567Z,0.98
2022-10-15T00:58:55.604Z,0.95
2022-10-15T01:01:41.780Z,0.70
2022-10-15T01:04:28.237Z,0.85
2022-10-15T01:07:14.113Z,1.27
2022-10-15T01:10:00.301Z,1.00
2022-10-15T01:12:57.131Z,1.02
2022-10-15T01:15:58.106Z,1.13
2022-10-15T01:18:55.146Z,0.73
2022-10-15T01:21:46.976Z,1.33
2022-10-15T01:25:03.743Z,1.10
2022-10-15T01:28:00.916Z,0.73
2022-10-15T01:30:54.751Z,0.70
2022-10-15T01:33:51.735Z,0.93
2022-10-15T01:36:55.136Z,0.40
2022-10-15T01:40:13.349Z,1.00
2022-10-15T01:43:03.847Z,0.80
2022-10-15T01:49:26.382Z,0.98
2022-10-15T01:52:18.823Z,0.98
2022-10-15T01:57:58.233Z,0.88
2022-10-15T02:00:44.433Z,0.65
2022-10-15T02:03:30.151Z,0.73
2022-10-15T02:06:37.179Z,0.55
2022-10-15T02:10:03.404Z,1.02
2022-10-15T02:13:33.919Z,0.90
2022-10-15T02:16:29.604Z,1.02
2022-10-15T02:19:28.641Z,0.82
2022-10-15T02:22:26.882Z,0.70
2022-10-15T02:25:21.399Z,0.80
2022-10-15T02:28:09.066Z,1.05
2022-10-15T02:30:57.018Z,0.50
2022-10-15T02:33:44.756Z,1.15
2022-10-15T02:36:33.155Z,1.23
2022-10-15T02:39:24.838Z,1.55
2022-10-15T02:42:10.865Z,1.27
2022-10-15T02:44:56.482Z,1.38
2022-10-15T02:47:41.823Z,1.73
2022-10-15T02:50:27.096Z,2.20
2022-10-15T02:53:12.633Z,1.52
2022-10-15T02:55:59.960Z,1.63
2022-10-15T02:58:45.406Z,0.70
2022-10-15T03:01:31.416Z,0.70
2022-10-15T03:04:16.927Z,0.47
2022-10-15T03:07:03.171Z,0.50
2022-10-15T03:09:49.611Z,0.40
2022-10-15T03:12:35.262Z,0.40
2022-10-15T03:15:20.829Z,0.68
2022-10-15T03:18:07.396Z,0.30
2022-10-15T03:20:56.923Z,0.40
2022-10-15T03:23:42.993Z,0.32
2022-10-15T03:26:35.104Z,0.28
2022-10-15T03:29:20.472Z,0.10
2022-10-15T03:32:14.122Z,0.20
2022-10-15T03:35:00.010Z,0.30
2022-10-15T03:37:45.414Z,0.52
2022-10-15T03:40:32.164Z,0.43
2022-10-15T03:43:29.515Z,0.10
2022-10-15T03:46:18.811Z,0.30
2022-10-15T03:49:06.347Z,0.40
2022-10-15T03:51:51.601Z,0.57
2022-10-15T03:54:39.154Z,0.30
2022-10-15T03:57:24.492Z,0.20
2022-10-15T04:00:18.944Z,0.20
2022-10-15T04:03:06.491Z,0.38
2022-10-15T04:05:54.577Z,0.30
2022-10-15T04:08:44.008Z,0.15
2022-10-15T04:11:42.638Z,0.30
2022-10-15T04:14:29.079Z,0.30
2022-10-15T04:17:14.532Z,0.10
2022-10-15T04:20:05.173Z,0.20
2022-10-15T04:22:50.967Z,0.10
2022-10-15T04:25:39.792Z,0.30
2022-10-15T04:28:26.814Z,0.20
2022-10-15T04:31:12.585Z,0.30
2022-10-15T04:33:58.789Z,0.20
2022-10-15T04:36:45.000Z,0.30
2022-10-15T04:39:33.837Z,0.43
2022-10-15T04:42:20.329Z,0.35
2022-10-15T04:45:07.967Z,0.20
2022-10-15T04:47:53.453Z,0.43
2022-10-15T04:50:40.575Z,0.32
2022-10-15T04:53:44.541Z,0.30
2022-10-15T04:56:30.055Z,0.45
2022-10-15T04:59:15.904Z,0.20
2022-10-15T05:02:21.582Z,0.30
2022-10-15T05:05:13.053Z,0.37
2022-10-15T05:08:08.229Z,0.20
2022-10-15T05:11:23.108Z,0.20
2022-10-15T05:14:09.317Z,0.30
2022-10-15T05:16:55.190Z,0.47
2022-10-15T05:19:41.657Z,0.20
2022-10-15T05:22:35.306Z,0.47
2022-10-15T05:25:21.124Z,0.35
2022-10-15T05:28:08.068Z,0.60
2022-10-15T05:30:53.490Z,0.70
2022-10-15T05:33:39.275Z,0.57
2022-10-15T05:36:27.424Z,0.50
2022-10-15T05:39:14.821Z,0.60
2022-10-15T05:42:02.671Z,0.50
2022-10-15T05:44:56.066Z,0.30
2022-10-15T05:47:41.461Z,0.50
2022-10-15T05:50:35.983Z,0.45
2022-10-15T05:53:25.169Z,0.63
2022-10-15T05:56:15.857Z,0.55
2022-10-15T05:59:01.144Z,0.60
2022-10-15T06:01:46.644Z,0.30
2022-10-15T06:04:35.540Z,0.20
2022-10-15T06:07:21.643Z,0.20
2022-10-15T06:10:07.844Z,0.47
2022-10-15T06:12:53.680Z,0.50
2022-10-15T06:15:40.915Z,0.50
2022-10-15T06:18:27.481Z,0.63
2022-10-15T06:21:14.198Z,0.40
2022-10-15T06:23:59.651Z,0.22
2022-10-15T06:26:45.016Z,0.43
2022-10-15T06:29:30.229Z,0.65
2022-10-15T06:32:16.492Z,0.38
2022-10-15T06:35:01.754Z,0.55
2022-10-15T06:37:47.387Z,0.68
2022-10-15T06:40:33.013Z,0.60
2022-10-15T06:43:18.396Z,0.73
2022-10-15T06:46:05.359Z,0.63
2022-10-15T06:48:51.985Z,0.50
2022-10-15T06:51:37.806Z,0.50
2022-10-15T06:54:23.449Z,0.38
2022-10-15T06:57:08.775Z,0.25
2022-10-15T06:59:54.658Z,0.45
2022-10-15T07:02:40.288Z,0.38
2022-10-15T07:05:25.874Z,0.57
2022-10-15T07:08:15.499Z,0.63
2022-10-15T07:11:06.193Z,0.47
2022-10-15T07:13:51.518Z,1.20
2022-10-15T07:16:37.446Z,0.52
2022-10-15T07:19:22.819Z,0.50
2022-10-15T07:22:08.145Z,0.40
2022-10-15T07:24:53.759Z,1.13
2022-10-15T07:27:39.543Z,0.85
2022-10-15T07:30:29.253Z,0.60
2022-10-15T07:33:15.018Z,0.55
2022-10-15T07:36:12.869Z,0.68
2022-10-15T07:38:59.591Z,0.52
2022-10-15T07:41:46.178Z,0.57
2022-10-15T07:44:31.744Z,0.60
2022-10-15T07:47:18.239Z,0.57
2022-10-15T07:50:03.939Z,0.95
2022-10-15T07:52:49.315Z,0.60
2022-10-15T07:55:35.296Z,1.00
2022-10-15T07:58:20.838Z,0.80
2022-10-15T08:01:11.323Z,0.40
2022-10-15T08:03:57.010Z,0.47
2022-10-15T08:06:43.772Z,0.90
2022-10-15T08:09:29.370Z,0.63
2022-10-15T08:12:14.640Z,0.68
2022-10-15T08:14:59.966Z,0.70
2022-10-15T08:17:45.577Z,0.77
2022-10-15T08:20:33.982Z,0.70
2022-10-15T08:23:20.949Z,0.60
2022-10-15T08:26:07.187Z,1.40
2022-10-15T08:28:52.693Z,1.17
2022-10-15T08:31:40.249Z,1.45
2022-10-15T08:34:26.300Z,1.05
2022-10-15T08:37:11.593Z,1.50
2022-10-15T08:39:57.378Z,0.80
2022-10-15T08:42:46.075Z,1.02
2022-10-15T08:45:42.486Z,1.33
2022-10-15T08:48:44.618Z,0.63
2022-10-15T08:51:48.470Z,0.50
2022-10-15T08:54:36.329Z,1.48
2022-10-15T08:57:40.040Z,0.77
2022-10-15T09:00:36.131Z,0.80
2022-10-15T09:03:30.826Z,0.88
2022-10-15T09:06:20.964Z,1.08
2022-10-15T09:09:33.677Z,0.90
2022-10-15T09:12:53.230Z,1.23
2022-10-15T09:15:48.728Z,1.58
2022-10-15T09:18:36.183Z,1.70
2022-10-15T09:21:25.761Z,1.40
2022-10-15T09:24:13.475Z,1.63
2022-10-15T09:27:20.452Z,2.53
2022-10-15T09:30:13.540Z,1.90
2022-10-15T09:33:20.659Z,1.52
2022-10-15T09:36:28.309Z,1.80
2022-10-15T09:39:23.066Z,1.30
2022-10-15T09:42:30.674Z,1.30
2022-10-15T09:45:17.097Z,1.05
2022-10-15T09:48:06.311Z,1.50
2022-10-15T09:51:26.655Z,1.25
2022-10-15T09:54:45.429Z,1.00
2022-10-15T09:57:33.459Z,0.95
2022-10-15T10:00:19.126Z,1.35
2022-10-15T10:03:07.832Z,1.23
2022-10-15T10:06:25.732Z,1.65
2022-10-15T10:09:17.547Z,1.08
2022-10-15T10:12:06.601Z,0.77
2022-10-15T10:14:58.441Z,0.65
2022-10-15T10:17:55.875Z,0.85
2022-10-15T10:20:54.183Z,0.60
2022-10-15T10:23:39.936Z,1.02
2022-10-15T10:26:25.475Z,1.10
2022-10-15T10:29:33.690Z,0.50
2022-10-15T10:32:23.622Z,0.80
2022-10-15T10:35:21.705Z,0.93
2022-10-15T10:38:19.843Z,0.80
2022-10-15T10:41:09.837Z,0.70
2022-10-15T10:43:56.331Z,0.70
2022-10-15T10:46:41.976Z,0.60
2022-10-15T10:49:45.658Z,1.35
2022-10-15T10:52:38.013Z,1.38
2022-10-15T10:58:23.536Z,0.73
2022-10-15T11:01:13.908Z,0.60
2022-10-15T11:03:59.138Z,0.80
2022-10-15T11:06:44.885Z,0.68
2022-10-15T11:09:55.302Z,0.65
2022-10-15T11:12:50.482Z,0.65
2022-10-15T11:15:42.449Z,0.47
2022-10-15T11:18:50.459Z,0.60
2022-10-15T11:21:45.236Z,0.52
2022-10-15T11:25:17.888Z,0.45
2022-10-15T11:28:23.799Z,0.82
2022-10-15T11:31:18.592Z,0.70
2022-10-15T11:34:40.837Z,0.38
2022-10-15T11:37:33.149Z,0.68
2022-10-15T11:40:32.650Z,0.47
2022-10-15T11:43:51.683Z,1.00
2022-10-15T11:47:00.732Z,0.82
2022-10-15T11:50:01.035Z,1.00
2022-10-15T11:52:55.488Z,0.88
2022-10-15T11:56:04.553Z,0.90
2022-10-15T11:59:20.292Z,1.00
2022-10-15T12:02:34.054Z,1.15
2022-10-15T12:05:28.885Z,1.10
2022-10-15T12:08:15.421Z,0.70
2022-10-15T12:11:13.069Z,1.00
2022-10-15T12:14:16.245Z,1.15
2022-10-15T12:17:14.631Z,0.85
2022-10-15T12:20:12.614Z,0.90
2022-10-15T12:23:00.448Z,1.15
2022-10-15T12:25:46.694Z,1.02
2022-10-15T12:28:33.375Z,1.63
2022-10-15T12:31:22.433Z,1.10
2022-10-15T12:34:39.848Z,1.60
2022-10-15T12:37:28.693Z,0.57
2022-10-15T12:40:23.149Z,0.75
2022-10-15T12:43:17.734Z,0.93
2022-10-15T12:46:08.973Z,0.60
2022-10-15T12:48:58.205Z,0.40
2022-10-15T12:51:43.509Z,0.50
2022-10-15T12:54:36.987Z,0.70
2022-10-15T12:57:31.499Z,0.70
2022-10-15T13:00:26.219Z,0.57
2022-10-15T13:03:20.800Z,0.93
2022-10-15T13:06:38.404Z,1.10
2022-10-15T13:09:29.421Z,0.95
2022-10-15T13:12:26.417Z,1.15
2022-10-15T13:15:16.298Z,1.83
2022-10-15T13:18:09.102Z,1.13
2022-10-15T13:20:56.526Z,0.98
2022-10-15T13:23:49.709Z,0.80
2022-10-15T13:26:35.222Z,0.80
2022-10-15T13:29:27.961Z,0.95
2022-10-15T13:32:15.545Z,1.33
2022-10-15T13:35:02.846Z,2.95
2022-10-15T13:37:49.026Z,0.77
2022-10-15T13:40:34.941Z,0.98
2022-10-15T13:43:25.316Z,0.65
2022-10-15T13:46:15.894Z,0.90
2022-10-15T13:49:10.474Z,1.25
2022-10-15T13:51:56.459Z,0.77
2022-10-15T13:54:46.670Z,1.10
2022-10-15T13:57:32.275Z,0.88
2022-10-15T14:00:29.607Z,0.90
2022-10-15T14:03:29.502Z,0.60
2022-10-15T14:06:21.965Z,0.50
2022-10-15T14:09:26.948Z,0.70
2022-10-15T14:12:12.849Z,0.80
2022-10-15T14:15:36.881Z,1.00
2022-10-15T14:18:34.571Z,0.52
2022-10-15T14:21:28.983Z,0.70
2022-10-15T14:24:16.126Z,1.05
2022-10-15T14:27:23.688Z,0.60
2022-10-15T14:30:15.466Z,1.20
2022-10-15T14:33:00.925Z,0.85
2022-10-15T14:36:02.940Z,1.42
2022-10-15T14:38:49.057Z,0.52
2022-10-15T14:41:34.689Z,0.90
2022-10-15T14:44:20.311Z,0.57
2022-10-15T14:47:05.556Z,0.70
2022-10-15T14:49:55.479Z,1.00
2022-10-15T14:52:46.618Z,0.77
2022-10-15T14:55:38.997Z,0.73
2022-10-15T14:58:26.592Z,0.60
2022-10-15T15:01:16.396Z,1.00
2022-10-15T15:04:01.627Z,0.50
2022-10-15T15:06:47.241Z,0.80
2022-10-15T15:09:32.687Z,0.80
2022-10-15T15:12:27.091Z,1.00
2022-10-15T15:15:19.646Z,0.73
2022-10-15T15:18:05.065Z,1.23
2022-10-15T15:20:51.742Z,1.00
2022-10-15T15:23:37.205Z,0.80
2022-10-15T15:26:24.733Z,0.70
2022-10-15T15:29:14.307Z,0.77
2022-10-15T15:31:59.700Z,0.60
2022-10-15T15:34:45.412Z,0.80
2022-10-15T15:37:31.027Z,0.68
2022-10-15T15:40:16.699Z,0.90
2022-10-15T15:43:02.718Z,0.50
2022-10-15T15:45:48.221Z,0.70
2022-10-15T15:48:34.318Z,0.50
2022-10-15T15:51:21.589Z,0.57
2022-10-15T15:54:09.903Z,1.00
2022-10-15T15:56:55.636Z,0.70
2022-10-15T15:59:41.260Z,1.23
2022-10-15T16:02:26.957Z,1.10
2022-10-15T16:05:15.981Z,0.77
2022-10-15T16:08:01.609Z,1.20
2022-10-15T16:10:47.069Z,0.90
2022-10-15T16:13:33.169Z,1.40
2022-10-15T16:16:19.605Z,1.35
2022-10-15T16:19:06.155Z,1.15
2022-10-15T16:21:52.056Z,1.35
2022-10-15T16:24:37.406Z,0.93
2022-10-15T16:27:23.122Z,1.92
2022-10-15T16:30:10.432Z,1.23
2022-10-15T16:32:56.510Z,1.45
2022-10-15T16:35:42.055Z,1.17
2022-10-15T16:38:27.533Z,1.55
2022-10-15T16:41:15.547Z,1.50
2022-10-15T16:44:01.213Z,1.00
2022-10-15T16:46:46.947Z,1.10
2022-10-15T16:49:32.580Z,1.33
2022-10-15T16:52:18.211Z,1.63
2022-10-15T16:55:03.996Z,1.40
2022-10-15T16:57:49.600Z,2.53
2022-10-15T17:00:35.011Z,1.35
2022-10-15T17:03:20.789Z,1.60
2022-10-15T17:06:28.193Z,1.02
2022-10-15T17:09:13.645Z,1.17
2022-10-15T17:11:59.586Z,1.75
2022-10-15T17:14:50.751Z,1.33
2022-10-15T17:17:36.235Z,2.22
2022-10-15T17:20:21.798Z,1.50
2022-10-15T17:23:07.251Z,1.58
2022-10-15T17:25:52.518Z,1.85
2022-10-15T17:28:38.366Z,1.45
2022-10-15T17:31:26.054Z,0.90
2022-10-15T17:34:11.957Z,1.50
2022-10-15T17:36:57.571Z,1.50
2022-10-15T17:39:43.050Z,1.67
2022-10-15T17:42:28.590Z,2.72
2022-10-15T17:45:13.912Z,2.38
2022-10-15T17:47:59.387Z,4.22
2022-10-15T17:50:45.522Z,1.85
2022-10-15T17:53:30.980Z,3.17
2022-10-15T17:56:26.086Z,2.65
2022-10-15T17:59:14.903Z,14.77
2022-10-15T18:02:01.087Z,9.55
2022-10-15T18:04:48.825Z,8.13
2022-10-15T18:07:34.605Z,4.93
2022-10-15T18:10:20.118Z,4.93
2022-10-15T18:13:06.672Z,5.07
2022-10-15T18:15:55.330Z,9.80
2022-10-15T18:18:41.034Z,12.57
2022-10-15T18:21:28.413Z,9.05
2022-10-15T18:24:14.200Z,13.75
2022-10-15T18:26:59.658Z,2.30
2022-10-15T18:29:44.891Z,23.05
2022-10-15T18:32:30.464Z,6.05
2022-10-15T18:35:15.672Z,11.65
2022-10-15T18:38:01.172Z,9.93
2022-10-15T18:40:47.276Z,7.78
2022-10-15T18:43:32.712Z,12.88
2022-10-15T18:46:18.461Z,15.70
2022-10-15T18:49:03.907Z,10.75
2022-10-15T18:51:54.182Z,15.65
2022-10-15T18:54:39.908Z,9.38
2022-10-15T18:57:25.370Z,2.97
2022-10-15T19:00:12.734Z,3.72
2022-10-15T19:02:58.370Z,7.45
2022-10-15T19:05:43.822Z,3.53
2022-10-15T19:08:31.148Z,2.53
2022-10-15T19:11:17.789Z,4.00
2022-10-15T19:14:04.301Z,2.25
2022-10-15T19:16:50.555Z,1.73
2022-10-15T19:19:36.606Z,2.08
2022-10-15T19:22:22.174Z,1.88
2022-10-15T19:25:08.327Z,1.55
2022-10-15T19:27:53.614Z,3.17
2022-10-15T19:30:39.424Z,2.85
2022-10-15T19:33:26.650Z,2.03
2022-10-15T19:36:19.861Z,1.60
2022-10-15T19:39:12.339Z,2.88
2022-10-15T19:41:57.992Z,2.40
2022-10-15T19:44:43.321Z,2.13
2022-10-15T19:47:28.937Z,3.55
2022-10-15T19:50:15.003Z,5.55
2022-10-15T19:53:00.395Z,1.98
2022-10-15T19:55:56.121Z,2.40
2022-10-15T19:58:41.747Z,3.67
2022-10-15T20:01:28.811Z,3.00
2022-10-15T20:04:14.271Z,1.45
2022-10-15T20:06:59.895Z,1.83
2022-10-15T20:09:45.103Z,1.65
2022-10-15T20:12:30.569Z,1.35
2022-10-15T20:15:15.973Z,1.00
2022-10-15T20:18:01.725Z,1.25
2022-10-15T20:20:48.257Z,0.63
2022-10-15T20:23:34.090Z,1.17
2022-10-15T20:26:19.833Z,1.35
2022-10-15T20:29:05.434Z,1.60
2022-10-15T20:31:51.675Z,1.20
2022-10-15T20:34:37.206Z,2.53
2022-10-15T20:37:22.646Z,5.43
2022-10-15T20:40:08.817Z,1.65
2022-10-15T20:42:54.782Z,1.60
2022-10-15T20:45:44.684Z,1.92
2022-10-15T20:48:32.297Z,1.05
2022-10-15T20:51:20.655Z,2.17
2022-10-15T20:54:09.396Z,0.98
2022-10-15T20:56:55.843Z,1.45
2022-10-15T20:59:41.443Z,1.48
2022-10-15T21:02:27.109Z,0.68
2022-10-15T21:05:12.775Z,0.68
2022-10-15T21:07:59.423Z,1.10
2022-10-15T21:10:44.765Z,1.70
2022-10-15T21:13:30.648Z,1.35
2022-10-15T21:16:16.592Z,0.90
2022-10-15T21:19:02.370Z,0.90
2022-10-15T21:21:47.861Z,3.15
2022-10-15T21:24:37.461Z,1.27
2022-10-15T21:27:23.086Z,0.85
2022-10-15T21:30:09.530Z,0.85
2022-10-15T21:32:55.232Z,1.40
2022-10-15T21:35:40.796Z,1.20
2022-10-15T21:38:26.507Z,0.90
2022-10-15T21:41:11.863Z,1.00
2022-10-15T21:43:58.738Z,1.13
2022-10-15T21:46:44.285Z,0.82
2022-10-15T21:49:29.469Z,0.95
2022-10-15T21:52:14.983Z,1.15
2022-10-15T21:55:00.313Z,1.10
2022-10-15T21:57:45.914Z,1.13
2022-10-15T22:00:31.229Z,1.02
2022-10-15T22:03:17.450Z,1.13
2022-10-15T22:06:04.020Z,1.10
2022-10-15T22:08:49.967Z,1.48
2022-10-15T22:11:38.076Z,1.55
2022-10-15T22:14:23.494Z,1.15
2022-10-15T22:17:08.701Z,1.40
2022-10-15T22:19:54.043Z,1.02
2022-10-15T22:22:39.525Z,1.83
2022-10-15T22:25:24.940Z,1.33
2022-10-15T22:28:10.584Z,0.98
2022-10-15T22:30:56.078Z,1.40
2022-10-15T22:33:43.004Z,0.98
2022-10-15T22:36:31.407Z,1.50
2022-10-15T22:39:18.069Z,1.35
2022-10-15T22:42:04.301Z,1.02
2022-10-15T22:44:49.812Z,1.02
2022-10-15T22:47:35.129Z,0.77
2022-10-15T22:50:20.643Z,0.60
2022-10-15T22:53:06.200Z,0.60
2022-10-15T22:56:02.462Z,1.30
2022-10-15T22:58:47.811Z,0.80
2022-10-15T23:01:34.979Z,0.70
2022-10-15T23:04:20.817Z,0.43
2022-10-15T23:07:06.599Z,0.65
2022-10-15T23:09:51.974Z,0.63
2022-10-15T23:12:38.348Z,0.70
2022-10-15T23:15:23.759Z,0.65
2022-10-15T23:18:09.041Z,0.88
2022-10-15T23:20:54.894Z,0.85
2022-10-15T23:23:40.782Z,0.93
2022-10-15T23:26:26.127Z,0.40
2022-10-15T23:29:23.199Z,0.98
2022-10-15T23:32:09.944Z,1.13
2022-10-15T23:34:55.490Z,0.60
2022-10-15T23:37:41.667Z,0.63
2022-10-15T23:40:27.167Z,0.88
2022-10-15T23:43:12.413Z,0.70
2022-10-15T23:45:58.389Z,0.57
2022-10-15T23:48:43.857Z,0.55
2022-10-15T23:51:30.994Z,0.68
2022-10-15T23:54:18.518Z,0.95
2022-10-15T23:57:04.094Z,0.40
2022-10-15T23:59:49.687Z,0.80
